createdAt,value
2019-02-18T00:01:54.793Z,29.20
2019-02-18T00:04:26.456Z,29.30
2019-02-18T00:06:58.156Z,29.40
2019-02-18T00:09:29.919Z,29.40
2019-02-18T00:12:01.651Z,29.40
2019-02-18T00:14:33.354Z,29.40
2019-02-18T00:17:05.247Z,29.40
2019-02-18T00:19:36.988Z,29.40
2019-02-18T00:22:08.868Z,29.50
2019-02-18T00:24:40.592Z,29.60
2019-02-18T00:27:13.539Z,29.70
2019-02-18T00:29:45.226Z,29.60
2019-02-18T00:32:16.890Z,29.60
2019-02-18T00:34:48.614Z,29.60
2019-02-18T00:37:24.426Z,29.60
2019-02-18T00:39:53.638Z,30.20
2019-02-18T00:42:25.384Z,29.70
2019-02-18T00:44:57.082Z,29.80
2019-02-18T00:47:28.715Z,29.80
2019-02-18T00:50:00.421Z,29.60
2019-02-18T00:52:32.102Z,29.80
2019-02-18T00:55:03.934Z,29.80
2019-02-18T00:57:35.627Z,30.00
2019-02-18T01:00:08.422Z,29.90
2019-02-18T01:02:40.292Z,30.00
2019-02-18T01:05:12.034Z,30.00
2019-02-18T01:07:43.777Z,30.00
2019-02-18T01:10:15.461Z,30.00
2019-02-18T01:12:47.237Z,30.00
2019-02-18T01:15:18.923Z,30.00
2019-02-18T01:17:50.611Z,30.00
2019-02-18T01:20:22.306Z,30.10
2019-02-18T01:22:54.015Z,30.10
2019-02-18T01:25:25.814Z,30.90
2019-02-18T01:27:57.640Z,30.10
2019-02-18T01:30:41.142Z,30.20
2019-02-18T01:33:12.822Z,30.20
2019-02-18T01:35:44.682Z,30.20
2019-02-18T01:38:16.330Z,30.20
2019-02-18T01:40:47.979Z,30.20
2019-02-18T01:43:19.614Z,30.30
2019-02-18T01:45:51.456Z,30.30
2019-02-18T01:48:23.199Z,30.30
2019-02-18T01:50:54.914Z,30.50
2019-02-18T01:53:26.605Z,30.50
2019-02-18T01:55:58.343Z,30.60
2019-02-18T01:58:30.137Z,30.60
2019-02-18T02:01:01.778Z,30.50
2019-02-18T02:03:33.482Z,30.60
2019-02-18T02:06:05.343Z,30.70
2019-02-18T02:08:37.096Z,30.70
2019-02-18T02:11:08.847Z,30.70
2019-02-18T02:13:40.530Z,30.70
2019-02-18T02:16:13.460Z,30.90
2019-02-18T02:18:45.314Z,30.90
2019-02-18T02:21:16.988Z,30.90
2019-02-18T02:23:48.667Z,31.00
2019-02-18T02:26:20.348Z,31.00
2019-02-18T02:28:52.111Z,31.10
2019-02-18T02:31:23.815Z,31.00
2019-02-18T02:33:55.514Z,31.10
2019-02-18T02:36:27.170Z,31.10
2019-02-18T02:38:58.885Z,31.30
2019-02-18T02:41:30.678Z,31.30
2019-02-18T02:44:02.373Z,31.30
2019-02-18T02:46:34.026Z,31.40
2019-02-18T02:49:05.688Z,31.40
2019-02-18T02:51:37.317Z,31.40
2019-02-18T02:54:08.992Z,31.50
2019-02-18T02:56:40.673Z,31.60
2019-02-18T03:02:09.301Z,31.50
2019-02-18T03:04:40.967Z,31.50
2019-02-18T03:07:12.618Z,31.60
2019-02-18T03:09:44.590Z,31.80
2019-02-18T03:12:16.239Z,31.70
2019-02-18T03:14:48.161Z,31.70
2019-02-18T03:17:20.098Z,31.10
2019-02-18T03:19:51.909Z,31.70
2019-02-18T03:22:23.569Z,31.70
2019-02-18T03:25:28.144Z,31.80
2019-02-18T03:28:47.797Z,31.70
2019-02-18T03:31:25.007Z,31.70
2019-02-18T03:34:05.691Z,31.70
2019-02-18T03:36:37.420Z,31.70
2019-02-18T03:39:09.096Z,31.70
2019-02-18T03:41:41.127Z,31.90
2019-02-18T03:44:12.921Z,31.90
2019-02-18T03:46:44.612Z,31.90
2019-02-18T03:49:16.311Z,31.90
2019-02-18T03:51:47.980Z,32.00
2019-02-18T03:54:19.767Z,32.00
2019-02-18T03:56:51.614Z,32.10
2019-02-18T03:59:23.656Z,32.00
2019-02-18T04:01:55.302Z,32.00
2019-02-18T04:04:27.058Z,32.10
2019-02-18T04:06:58.698Z,32.10
2019-02-18T04:09:30.383Z,32.10
2019-02-18T04:12:02.167Z,32.10
2019-02-18T04:14:33.865Z,32.80
2019-02-18T04:17:05.566Z,32.20
2019-02-18T04:19:37.231Z,32.20
2019-02-18T04:22:08.944Z,32.40
2019-02-18T04:24:40.595Z,32.50
2019-02-18T04:27:12.284Z,32.40
2019-02-18T04:29:43.938Z,32.50
2019-02-18T04:32:15.706Z,32.50
2019-02-18T04:34:47.323Z,32.30
2019-02-18T04:37:19.020Z,32.50
2019-02-18T04:39:50.649Z,32.50
2019-02-18T04:42:22.393Z,32.50
2019-02-18T04:44:54.093Z,32.50
2019-02-18T04:47:25.764Z,32.60
2019-02-18T04:49:57.477Z,32.70
2019-02-18T04:52:29.227Z,32.70
2019-02-18T04:55:00.891Z,32.70
2019-02-18T04:57:32.574Z,32.70
2019-02-18T05:00:04.684Z,32.80
2019-02-18T05:02:36.489Z,32.90
2019-02-18T05:05:08.467Z,32.90
2019-02-18T05:07:40.440Z,32.90
2019-02-18T05:10:12.152Z,32.90
2019-02-18T05:12:43.847Z,32.50
2019-02-18T05:15:15.545Z,33.00
2019-02-18T05:17:47.392Z,33.10
2019-02-18T05:20:19.002Z,33.10
2019-02-18T05:22:50.769Z,33.20
2019-02-18T05:25:22.381Z,33.20
2019-02-18T05:27:54.152Z,33.20
2019-02-18T05:30:25.836Z,33.20
2019-02-18T05:32:57.500Z,33.40
2019-02-18T05:35:29.208Z,33.30
2019-02-18T05:38:00.985Z,33.40
2019-02-18T05:40:32.624Z,33.40
2019-02-18T05:43:04.328Z,33.40
2019-02-18T05:45:36.092Z,33.40
2019-02-18T05:48:07.749Z,33.50
2019-02-18T05:50:39.452Z,33.50
2019-02-18T05:53:11.376Z,33.50
2019-02-18T05:55:43.090Z,33.60
2019-02-18T05:58:14.820Z,33.60
2019-02-18T06:00:46.477Z,33.60
2019-02-18T06:03:18.238Z,33.60
2019-02-18T06:05:49.951Z,33.60
2019-02-18T06:08:21.629Z,33.60
2019-02-18T06:10:53.323Z,33.60
2019-02-18T06:13:24.974Z,33.50
2019-02-18T06:15:56.671Z,33.70
2019-02-18T06:18:28.381Z,33.70
2019-02-18T06:21:00.037Z,33.70
2019-02-18T06:23:31.713Z,33.70
2019-02-18T06:26:03.410Z,33.70
2019-02-18T06:28:35.159Z,33.70
2019-02-18T06:31:06.896Z,33.70
2019-02-18T06:33:38.567Z,33.70
2019-02-18T06:36:10.297Z,33.70
2019-02-18T06:38:41.935Z,33.70
2019-02-18T06:41:13.679Z,33.70
2019-02-18T06:43:45.343Z,33.70
2019-02-18T06:46:32.673Z,33.30
2019-02-18T06:49:25.138Z,33.70
2019-02-18T06:51:56.809Z,33.70
2019-02-18T06:54:28.556Z,33.70
2019-02-18T06:57:25.155Z,33.60
2019-02-18T07:00:02.014Z,33.70
2019-02-18T07:02:50.671Z,33.60
2019-02-18T07:05:46.388Z,33.60
2019-02-18T07:08:37.206Z,33.60
2019-02-18T07:11:13.174Z,33.70
2019-02-18T07:13:44.908Z,33.70
2019-02-18T07:16:16.610Z,33.80
2019-02-18T07:18:48.248Z,33.80
2019-02-18T07:21:21.365Z,33.90
2019-02-18T07:23:53.151Z,33.80
2019-02-18T07:26:24.929Z,34.00
2019-02-18T07:28:56.685Z,33.90
2019-02-18T07:31:28.521Z,34.00
2019-02-18T07:34:01.476Z,34.00
2019-02-18T07:36:34.988Z,34.00
2019-02-18T07:39:08.805Z,34.00
2019-02-18T07:41:40.681Z,34.10
2019-02-18T07:44:13.691Z,34.20
2019-02-18T07:46:45.325Z,34.00
2019-02-18T07:49:18.342Z,34.10
2019-02-18T07:51:50.048Z,34.10
2019-02-18T07:54:21.888Z,34.10
2019-02-18T07:56:53.592Z,34.10
2019-02-18T07:59:26.184Z,34.80
2019-02-18T08:01:57.967Z,34.20
2019-02-18T08:04:29.809Z,34.20
2019-02-18T08:07:01.740Z,34.20
2019-02-18T08:09:33.484Z,34.30
2019-02-18T08:12:05.127Z,34.20
2019-02-18T08:14:38.193Z,34.20
2019-02-18T08:17:09.871Z,34.10
2019-02-18T08:19:41.555Z,34.20
2019-02-18T08:22:13.217Z,34.20
2019-02-18T08:24:44.945Z,34.20
2019-02-18T08:27:16.647Z,34.10
2019-02-18T08:29:48.409Z,34.10
2019-02-18T08:32:20.295Z,34.80
2019-02-18T08:34:52.034Z,34.20
2019-02-18T08:37:24.470Z,34.10
2019-02-18T08:39:56.341Z,34.10
2019-02-18T08:42:28.312Z,34.10
2019-02-18T08:45:00.309Z,34.20
2019-02-18T08:47:32.162Z,34.10
2019-02-18T08:50:03.914Z,34.20
2019-02-18T08:52:35.590Z,34.10
2019-02-18T08:55:09.690Z,34.20
2019-02-18T08:57:41.549Z,34.00
2019-02-18T09:00:17.607Z,34.00
2019-02-18T09:02:49.294Z,34.10
2019-02-18T09:05:21.251Z,34.10
2019-02-18T09:07:53.217Z,34.10
2019-02-18T09:10:33.069Z,34.50
2019-02-18T09:12:58.352Z,34.20
2019-02-18T09:15:30.063Z,34.20
2019-02-18T09:18:03.160Z,34.10
2019-02-18T09:20:34.805Z,34.20
2019-02-18T09:23:25.555Z,34.10
2019-02-18T09:26:00.079Z,34.20
2019-02-18T09:28:32.679Z,34.40
2019-02-18T09:31:04.644Z,34.60
2019-02-18T09:33:36.608Z,34.60
2019-02-18T09:36:11.624Z,34.70
2019-02-18T09:38:46.533Z,34.90
2019-02-18T09:41:20.989Z,34.80
2019-02-18T09:43:54.215Z,35.10
2019-02-18T09:46:28.274Z,35.10
2019-02-18T09:49:01.381Z,35.30
2019-02-18T09:51:35.160Z,35.30
2019-02-18T09:54:07.388Z,35.50
2019-02-18T09:56:42.210Z,35.50
2019-02-18T09:59:13.899Z,35.60
2019-02-18T10:01:45.726Z,35.30
2019-02-18T10:04:19.523Z,34.90
2019-02-18T10:06:51.283Z,34.40
2019-02-18T10:09:23.177Z,34.20
2019-02-18T10:11:54.860Z,34.10
2019-02-18T10:14:26.681Z,33.40
2019-02-18T10:16:58.356Z,32.80
2019-02-18T10:19:30.232Z,32.20
2019-02-18T10:22:02.424Z,31.90
2019-02-18T10:24:34.138Z,31.80
2019-02-18T10:27:06.071Z,31.90
2019-02-18T10:29:37.833Z,31.70
2019-02-18T10:32:09.556Z,31.60
2019-02-18T10:34:41.245Z,31.30
2019-02-18T10:37:13.660Z,31.40
2019-02-18T10:39:45.886Z,31.30
2019-02-18T10:42:18.372Z,30.60
2019-02-18T10:44:50.737Z,30.70
2019-02-18T10:47:23.299Z,30.40
2019-02-18T10:49:55.601Z,30.00
2019-02-18T10:52:27.949Z,30.10
2019-02-18T10:55:00.273Z,29.40
2019-02-18T10:57:32.564Z,29.30
2019-02-18T11:00:07.823Z,28.90
2019-02-18T11:02:40.244Z,28.90
2019-02-18T11:05:12.559Z,28.40
2019-02-18T11:07:45.095Z,28.30
2019-02-18T11:10:17.549Z,28.20
2019-02-18T11:12:49.790Z,27.90
2019-02-18T11:15:22.031Z,27.60
2019-02-18T11:17:54.398Z,26.60
2019-02-18T11:20:26.680Z,26.40
2019-02-18T11:22:58.949Z,26.20
2019-02-18T11:25:31.220Z,25.90
2019-02-18T11:28:04.025Z,26.00
2019-02-18T11:30:38.969Z,26.00
2019-02-18T11:33:10.346Z,25.40
2019-02-18T11:35:42.672Z,25.50
2019-02-18T11:38:15.140Z,25.10
2019-02-18T11:40:47.522Z,24.80
2019-02-18T11:43:19.827Z,24.70
2019-02-18T11:45:52.048Z,24.30
2019-02-18T11:48:24.280Z,24.20
2019-02-18T11:50:57.032Z,23.20
2019-02-18T11:53:29.565Z,22.90
2019-02-18T11:56:02.116Z,22.50
2019-02-18T11:58:34.485Z,22.30
2019-02-18T12:01:06.836Z,21.80
2019-02-18T12:03:39.257Z,21.80
2019-02-18T12:06:11.637Z,21.50
2019-02-18T12:08:44.270Z,20.90
2019-02-18T12:11:16.628Z,21.00
2019-02-18T12:13:48.907Z,20.50
2019-02-18T12:16:21.336Z,20.40
2019-02-18T12:18:53.598Z,20.30
2019-02-18T12:21:25.881Z,20.40
2019-02-18T12:23:58.235Z,20.40
2019-02-18T12:26:30.622Z,20.80
2019-02-18T12:29:02.884Z,20.60
2019-02-18T12:31:35.218Z,20.70
2019-02-18T12:34:07.479Z,20.60
2019-02-18T12:36:39.822Z,20.50
2019-02-18T12:39:14.637Z,20.40
2019-02-18T12:41:49.034Z,20.20
2019-02-18T12:44:22.451Z,20.00
2019-02-18T12:46:54.932Z,19.80
2019-02-18T12:49:27.299Z,19.80
2019-02-18T12:52:08.510Z,19.80
2019-02-18T12:54:40.998Z,19.30
2019-02-18T12:57:13.479Z,19.10
2019-02-18T12:59:45.801Z,18.70
2019-02-18T13:02:18.440Z,18.80
2019-02-18T13:04:50.922Z,18.80
2019-02-18T13:07:23.141Z,18.70
2019-02-18T13:09:55.504Z,18.70
2019-02-18T13:12:27.874Z,18.40
2019-02-18T13:15:00.335Z,18.00
2019-02-18T13:17:32.721Z,18.20
2019-02-18T13:20:05.203Z,18.40
2019-02-18T13:22:37.697Z,18.40
2019-02-18T13:25:10.387Z,18.40
2019-02-18T13:27:42.895Z,18.50
2019-02-18T13:30:16.450Z,18.60
2019-02-18T13:32:48.829Z,18.30
2019-02-18T13:35:21.157Z,18.20
2019-02-18T13:37:53.537Z,18.10
2019-02-18T13:40:25.912Z,18.10
2019-02-18T13:42:58.329Z,18.50
2019-02-18T13:45:30.641Z,18.50
2019-02-18T13:48:03.135Z,18.40
2019-02-18T13:50:35.580Z,18.20
2019-02-18T13:53:08.247Z,17.90
2019-02-18T13:55:40.725Z,18.10
2019-02-18T13:58:13.029Z,18.10
2019-02-18T14:00:45.423Z,18.20
2019-02-18T14:03:17.707Z,18.30
2019-02-18T14:05:50.257Z,18.50
2019-02-18T14:08:22.525Z,18.50
2019-02-18T14:10:54.932Z,18.70
2019-02-18T14:13:27.312Z,18.70
2019-02-18T14:15:59.948Z,18.60
2019-02-18T14:18:32.291Z,18.20
2019-02-18T14:21:04.596Z,18.10
2019-02-18T14:23:37.038Z,18.10
2019-02-18T14:26:09.542Z,18.10
2019-02-18T14:28:42.463Z,18.30
2019-02-18T14:31:14.926Z,18.50
2019-02-18T14:33:47.231Z,18.60
2019-02-18T14:36:19.607Z,18.80
2019-02-18T14:38:51.925Z,18.90
2019-02-18T14:41:24.511Z,18.90
2019-02-18T14:43:57.054Z,18.90
2019-02-18T14:46:29.301Z,18.80
2019-02-18T14:49:01.568Z,18.90
2019-02-18T14:51:33.971Z,19.50
2019-02-18T14:54:08.352Z,19.10
2019-02-18T14:56:42.570Z,19.10
2019-02-18T14:59:14.884Z,19.10
2019-02-18T15:01:47.299Z,19.00
2019-02-18T15:04:19.917Z,18.90
2019-02-18T15:06:51.681Z,19.00
2019-02-18T15:09:24.086Z,19.00
2019-02-18T15:11:55.863Z,19.10
2019-02-18T15:14:27.658Z,19.10
2019-02-18T15:17:18.674Z,19.10
2019-02-18T15:19:50.375Z,18.90
2019-02-18T15:22:22.129Z,19.20
2019-02-18T15:24:53.968Z,19.50
2019-02-18T15:27:25.942Z,19.60
2019-02-18T15:29:57.806Z,19.70
2019-02-18T15:32:29.755Z,19.80
2019-02-18T15:35:01.485Z,19.80
2019-02-18T15:37:33.552Z,19.80
2019-02-18T15:40:06.398Z,19.80
2019-02-18T15:42:42.295Z,20.00
2019-02-18T15:45:12.094Z,20.10
2019-02-18T15:47:43.860Z,20.20
2019-02-18T15:50:16.759Z,20.40
2019-02-18T15:52:52.450Z,20.60
2019-02-18T15:55:30.087Z,20.20
2019-02-18T15:58:03.423Z,20.20
2019-02-18T16:00:38.483Z,20.30
2019-02-18T16:03:10.220Z,20.60
2019-02-18T16:05:42.095Z,20.50
2019-02-18T16:08:13.848Z,20.60
2019-02-18T16:10:47.741Z,20.60
2019-02-18T16:13:19.486Z,20.70
2019-02-18T16:15:52.431Z,20.70
2019-02-18T16:18:25.762Z,20.80
2019-02-18T16:20:57.571Z,20.80
2019-02-18T16:23:29.379Z,20.90
2019-02-18T16:26:01.127Z,21.00
2019-02-18T16:28:32.870Z,21.00
2019-02-18T16:31:04.775Z,21.30
2019-02-18T16:33:36.597Z,21.20
2019-02-18T16:36:10.079Z,21.50
2019-02-18T16:38:43.253Z,21.50
2019-02-18T16:41:16.501Z,22.10
2019-02-18T16:43:48.451Z,21.60
2019-02-18T16:46:20.580Z,21.60
2019-02-18T16:48:56.494Z,21.50
2019-02-18T16:51:28.203Z,21.60
2019-02-18T16:54:02.151Z,21.50
2019-02-18T16:56:35.327Z,21.50
2019-02-18T16:59:07.381Z,21.40
2019-02-18T17:01:39.146Z,21.30
2019-02-18T17:04:10.892Z,21.40
2019-02-18T17:06:44.268Z,21.40
2019-02-18T17:09:16.324Z,21.50
2019-02-18T17:11:48.087Z,21.40
2019-02-18T17:14:20.051Z,21.50
2019-02-18T17:16:52.363Z,21.50
2019-02-18T17:19:25.484Z,21.60
2019-02-18T17:21:57.198Z,21.70
2019-02-18T17:24:28.981Z,21.70
2019-02-18T17:27:00.806Z,21.90
2019-02-18T17:29:32.756Z,21.90
2019-02-18T17:32:04.723Z,21.90
2019-02-18T17:34:36.552Z,22.00
2019-02-18T17:37:08.310Z,22.10
2019-02-18T17:39:40.160Z,22.20
2019-02-18T17:42:12.028Z,22.30
2019-02-18T17:44:43.856Z,22.90
2019-02-18T17:47:15.827Z,22.40
2019-02-18T17:49:47.598Z,22.60
2019-02-18T17:52:19.477Z,22.50
2019-02-18T17:54:52.791Z,22.70
2019-02-18T17:57:24.765Z,22.80
2019-02-18T17:59:56.592Z,22.90
2019-02-18T18:02:28.470Z,23.50
2019-02-18T18:05:00.291Z,23.10
2019-02-18T18:07:32.111Z,23.20
2019-02-18T18:10:03.867Z,23.30
2019-02-18T18:12:39.559Z,23.40
2019-02-18T18:15:10.764Z,23.50
2019-02-18T18:17:45.163Z,23.60
2019-02-18T18:20:18.232Z,23.70
2019-02-18T18:22:52.431Z,23.80
2019-02-18T18:25:24.238Z,23.90
2019-02-18T18:27:56.216Z,24.00
2019-02-18T18:30:28.204Z,24.10
2019-02-18T18:33:01.290Z,24.10
2019-02-18T18:35:33.010Z,24.30
2019-02-18T18:38:06.847Z,24.40
2019-02-18T18:40:41.555Z,24.60
2019-02-18T18:43:13.603Z,24.50
2019-02-18T18:45:46.401Z,24.70
2019-02-18T18:48:21.585Z,24.80
2019-02-18T18:50:53.437Z,24.80
2019-02-18T18:53:28.232Z,25.00
2019-02-18T18:56:00.073Z,25.00
2019-02-18T18:58:33.357Z,25.20
2019-02-18T19:01:08.228Z,25.20
2019-02-18T19:03:43.043Z,25.30
2019-02-18T19:06:16.623Z,25.40
2019-02-18T19:08:48.779Z,25.50
2019-02-18T19:11:20.682Z,25.60
2019-02-18T19:13:52.419Z,25.60
2019-02-18T19:16:24.354Z,25.80
2019-02-18T19:18:57.536Z,25.90
2019-02-18T19:21:29.507Z,25.80
2019-02-18T19:24:01.396Z,26.10
2019-02-18T19:26:33.387Z,26.10
2019-02-18T19:29:05.243Z,26.10
2019-02-18T19:31:38.679Z,26.30
2019-02-18T19:34:10.617Z,26.30
2019-02-18T19:36:42.619Z,26.40
2019-02-18T19:39:19.904Z,26.50
2019-02-18T19:41:51.839Z,26.50
2019-02-18T19:44:24.025Z,26.50
2019-02-18T19:46:56.110Z,26.60
2019-02-18T19:49:30.546Z,26.80
2019-02-18T19:52:02.473Z,26.80
2019-02-18T19:54:34.314Z,26.90
2019-02-18T19:57:06.124Z,26.90
2019-02-18T19:59:37.952Z,27.10
2019-02-18T20:02:11.303Z,27.20
2019-02-18T20:04:43.416Z,27.20
2019-02-18T20:07:15.583Z,27.30
2019-02-18T20:09:47.642Z,27.40
2019-02-18T20:12:19.503Z,27.50
2019-02-18T20:14:51.216Z,27.50
2019-02-18T20:17:23.097Z,27.60
2019-02-18T20:19:55.039Z,27.50
2019-02-18T20:22:27.073Z,27.60
2019-02-18T20:24:59.469Z,27.70
2019-02-18T20:27:31.348Z,28.10
2019-02-18T20:30:03.322Z,27.80
2019-02-18T20:32:35.150Z,27.90
2019-02-18T20:35:07.863Z,28.00
2019-02-18T20:37:39.856Z,28.00
2019-02-18T20:40:12.647Z,28.10
2019-02-18T20:42:44.820Z,28.10
2019-02-18T20:45:16.908Z,28.20
2019-02-18T20:47:48.663Z,28.20
2019-02-18T20:50:20.521Z,28.40
2019-02-18T20:52:52.328Z,28.40
2019-02-18T20:55:24.273Z,28.50
2019-02-18T20:57:56.131Z,28.60
2019-02-18T21:00:27.992Z,28.80
2019-02-18T21:02:59.806Z,28.70
2019-02-18T21:05:31.616Z,29.20
2019-02-18T21:08:03.850Z,28.80
2019-02-18T21:10:35.747Z,29.40
2019-02-18T21:13:07.551Z,29.00
2019-02-18T21:15:40.787Z,28.70
2019-02-18T21:18:12.834Z,29.00
2019-02-18T21:20:44.656Z,29.10
2019-02-18T21:23:16.924Z,29.10
2019-02-18T21:25:48.715Z,29.10
2019-02-18T21:28:21.806Z,29.20
2019-02-18T21:30:53.945Z,29.30
2019-02-18T21:33:25.806Z,29.30
2019-02-18T21:35:57.557Z,29.40
2019-02-18T21:38:31.406Z,29.40
2019-02-18T21:41:05.930Z,29.60
2019-02-18T21:43:39.297Z,30.00
2019-02-18T21:46:16.549Z,29.70
2019-02-18T21:48:48.490Z,29.70
2019-02-18T21:51:21.459Z,29.80
2019-02-18T21:53:53.683Z,29.70
2019-02-18T21:56:26.587Z,30.10
2019-02-18T21:58:59.118Z,29.80
2019-02-18T22:01:38.574Z,29.90
2019-02-18T22:04:11.080Z,30.00
2019-02-18T22:06:44.055Z,29.90
2019-02-18T22:09:15.756Z,30.00
2019-02-18T22:11:48.580Z,30.00
2019-02-18T22:14:21.279Z,30.20
2019-02-18T22:16:53.564Z,30.30
2019-02-18T22:19:26.193Z,30.30
2019-02-18T22:21:59.693Z,30.30
2019-02-18T22:24:33.469Z,30.60
2019-02-18T22:27:08.050Z,30.60
2019-02-18T22:29:42.219Z,30.50
2019-02-18T22:32:17.636Z,30.20
2019-02-18T22:34:49.813Z,30.40
2019-02-18T22:37:30.290Z,30.80
2019-02-18T22:40:05.243Z,30.80
2019-02-18T22:42:41.441Z,30.80
2019-02-18T22:45:13.913Z,30.80
2019-02-18T22:47:47.008Z,30.40
2019-02-18T22:50:19.629Z,31.00
2019-02-18T22:52:51.669Z,31.00
2019-02-18T22:55:25.809Z,31.10
2019-02-18T22:57:58.480Z,31.30
2019-02-18T23:01:00.881Z,31.40
2019-02-18T23:03:33.027Z,31.40
2019-02-18T23:06:06.012Z,31.50
2019-02-18T23:08:42.657Z,31.50
2019-02-18T23:11:14.737Z,31.50
2019-02-18T23:13:47.460Z,31.50
2019-02-18T23:16:21.754Z,32.10
2019-02-18T23:18:54.549Z,31.80
2019-02-18T23:21:27.524Z,31.70
2019-02-18T23:24:00.426Z,31.80
2019-02-18T23:26:37.370Z,31.90
2019-02-18T23:29:12.322Z,31.60
2019-02-18T23:31:44.674Z,31.90
2019-02-18T23:34:17.652Z,32.00
2019-02-18T23:36:51.376Z,32.10
2019-02-18T23:39:24.682Z,32.20
2019-02-18T23:41:57.669Z,32.10
2019-02-18T23:44:31.210Z,32.40
2019-02-18T23:47:04.105Z,32.30
2019-02-18T23:49:37.892Z,32.50
2019-02-18T23:52:10.885Z,32.70
2019-02-18T23:54:56.234Z,32.70
2019-02-18T23:57:29.529Z,32.80
